Overview Statistics Trail Chart Weather Telemetry Raw packets
 

This is the latest recevied weather packets stored in our database for station/object YO8SHU-10. If no packets are shown the sender has not sent any weather packets the latest 10 day(s).

<< 10 11 12 13 14 15 16 >>
Time Temp. Humidity Pressure Rain* Wind** Luminosity Snow
1788103825 28.33° C 81% 1022.2 hPa - - - -
1788102025 28.33° C 72% 1022.3 hPa - - - -
1788100225 32.78° C 58% 1022.3 hPa - - - -
1788098425 30.56° C 71% 1022.3 hPa - - - -
1788096625 31.67° C 59% 1022.5 hPa - - - -
1788094825 28.33° C 80% 1022.5 hPa - - - -
1788093025 28.33° C 73% 1022.7 hPa - - - -
1788091225 31.11° C 64% 1022.9 hPa - - - -
1788089425 32.22° C 76% 1023.1 hPa - - - -
1788087624 31.67° C 71% 1023.6 hPa - - - -
1788085824 31.11° C 75% 1023.8 hPa - - - -
1788084024 29.44° C 82% 1023.8 hPa - - - -
1788082224 30° C 81% 1023.8 hPa - - - -
1788080424 30° C 89% 1024.3 hPa - - - -
1788078624 28.33° C 100% 1024.4 hPa - - - -
1788076824 26.67° C 100% 1024.4 hPa - - - -
1788075024 24.44° C 100% 1024.2 hPa - - - -
1788073224 23.89° C 100% 1024.2 hPa - - - -
1788071424 23.33° C 100% 1024.3 hPa - - - -
1788069623 22.78° C 100% 1024.2 hPa - - - -
1788067823 21.11° C 100% 1023.9 hPa - - - -
1788066023 21.11° C 100% 1023.9 hPa - - - -
1788064223 17.78° C 100% 1023.6 hPa - - - -
1788062423 17.22° C 100% 1023.5 hPa - - - -
1788060623 17.22° C 100% 1023.5 hPa - - - -

* Rain since midnight (hover to see other rain measurements)
** Current wind speed in m/s (hover to see current wind gust speed)